Time;durP1;ratioP1;P1;durP2;ratioP2;P2;SDS_P1;SDS_P2;PMS_P1;PMS_P2;Temp;Humidity;BMP_temperature;BMP_pressure;BME280_temperature;BME280_humidity;BME280_pressure;Samples;Min_cycle;Max_cycle;Signal;HPM_P1;HPM_P2
2022/06/18 00:00:56;;;;;;;3.00;2.70;;;17.90;99.90;;;;;;4987902;28;20546;-86
2022/06/18 00:03:23;;;;;;;2.53;2.30;;;17.90;99.90;;;;;;4965455;28;20451;-86
2022/06/18 00:05:51;;;;;;;2.70;2.60;;;17.90;99.90;;;;;;4985928;28;20455;-86
2022/06/18 00:08:26;;;;;;;3.10;2.90;;;17.90;99.90;;;;;;4981484;28;20494;-86
2022/06/18 00:14:00;;;;;;;3.53;3.10;;;18.00;99.90;;;;;;4967924;28;21084;-86
2022/06/18 00:16:27;;;;;;;2.90;2.70;;;18.00;99.90;;;;;;4975658;28;21008;-86
2022/06/18 00:18:52;;;;;;;3.27;2.93;;;17.90;99.90;;;;;;4989060;28;20718;-86
2022/06/18 00:21:21;;;;;;;2.73;2.53;;;17.80;99.90;;;;;;4971677;28;20440;-86
2022/06/18 00:23:47;;;;;;;4.80;3.57;;;17.80;99.90;;;;;;5006697;28;20189;-87
2022/06/18 00:26:13;;;;;;;3.37;3.07;;;17.70;99.90;;;;;;4991011;28;20990;-87
2022/06/18 00:28:39;;;;;;;3.57;3.27;;;17.70;99.90;;;;;;4974601;28;20188;-86
2022/06/18 00:31:14;;;;;;;3.37;3.17;;;17.60;99.90;;;;;;4986519;28;20479;-86
2022/06/18 00:33:40;;;;;;;3.60;3.00;;;17.40;99.90;;;;;;4971618;28;21857;-86
2022/06/18 00:36:13;;;;;;;3.57;2.90;;;17.40;99.90;;;;;;4979358;28;20189;-86
2022/06/18 00:38:41;;;;;;;3.17;2.87;;;17.50;99.90;;;;;;4974147;28;20443;-86
2022/06/18 00:41:13;;;;;;;3.90;2.87;;;17.50;99.90;;;;;;4993928;28;20448;-87
2022/06/18 00:44:01;;;;;;;4.30;3.90;;;17.50;99.90;;;;;;4989837;28;20817;-86
2022/06/18 00:46:35;;;;;;;3.50;3.30;;;17.50;99.90;;;;;;5006298;27;20532;-87
2022/06/18 00:49:36;;;;;;;4.00;3.60;;;17.50;99.90;;;;;;4986326;28;20539;-86
2022/06/18 00:52:21;;;;;;;3.50;3.27;;;17.40;99.90;;;;;;4965038;28;20456;-86
2022/06/18 00:55:10;;;;;;;3.30;3.10;;;17.30;99.90;;;;;;4979763;28;20451;-86
2022/06/18 00:57:49;;;;;;;3.30;3.00;;;17.30;99.90;;;;;;5002684;28;20462;-86
2022/06/18 01:00:27;;;;;;;3.30;3.10;;;17.30;99.90;;;;;;4992046;28;20435;-87
2022/06/18 01:02:52;;;;;;;3.60;3.30;;;17.40;99.90;;;;;;4994134;28;20493;-86
2022/06/18 01:05:27;;;;;;;3.63;3.33;;;17.50;99.90;;;;;;4985903;28;21750;-86
2022/06/18 01:07:58;;;;;;;4.90;3.30;;;17.50;99.90;;;;;;4988785;28;20177;-86
2022/06/18 01:10:34;;;;;;;4.20;3.20;;;17.50;99.90;;;;;;4984052;28;20479;-86
2022/06/18 01:13:04;;;;;;;5.20;3.40;;;17.50;99.90;;;;;;4998524;28;20796;-86
2022/06/18 01:15:31;;;;;;;3.60;3.30;;;17.50;99.90;;;;;;4975606;28;20579;-86
2022/06/18 01:17:56;;;;;;;4.70;4.00;;;17.50;99.90;;;;;;5004851;28;20953;-86
2022/06/18 01:20:24;;;;;;;6.20;4.37;;;17.60;99.90;;;;;;4989502;28;20452;-86
2022/06/18 01:23:32;;;;;;;4.67;4.27;;;17.60;99.90;;;;;;4996188;28;20181;-86
2022/06/18 01:25:58;;;;;;;7.40;4.07;;;17.50;99.90;;;;;;4966547;28;21011;-86
2022/06/18 01:28:23;;;;;;;4.53;4.13;;;17.50;99.90;;;;;;4985251;28;20432;-86
2022/06/18 01:30:49;;;;;;;4.47;4.17;;;17.50;99.90;;;;;;4991700;28;20964;-86
2022/06/18 01:33:19;;;;;;;5.93;4.43;;;17.50;99.90;;;;;;4993363;28;20185;-86
2022/06/18 01:35:50;;;;;;;4.57;4.17;;;17.50;99.90;;;;;;4986224;28;20810;-86
2022/06/18 01:38:16;;;;;;;4.00;3.70;;;17.40;99.90;;;;;;4984110;28;20437;-86
2022/06/18 01:41:49;;;;;;;5.00;4.60;;;17.30;99.90;;;;;;4972736;28;20452;-86
2022/06/18 01:43:52;;;;;;;4.37;4.03;;;17.30;99.90;;;;;;4992350;28;20476;-87
2022/06/18 01:46:18;;;;;;;4.13;3.83;;;17.20;99.90;;;;;;4989412;28;20501;-86
2022/06/18 01:48:45;;;;;;;4.30;4.00;;;17.20;99.90;;;;;;4985598;28;20455;-87
2022/06/18 01:51:19;;;;;;;4.10;3.80;;;17.20;99.90;;;;;;4988645;28;20219;-86
2022/06/18 01:53:49;;;;;;;4.10;3.80;;;17.30;99.90;;;;;;5010387;28;20447;-86
2022/06/18 01:56:33;;;;;;;4.80;4.40;;;17.30;99.90;;;;;;4992383;28;20449;-86
2022/06/18 01:59:04;;;;;;;4.30;4.00;;;17.30;99.90;;;;;;4987463;28;20440;-86
2022/06/18 02:01:39;;;;;;;4.90;4.50;;;17.20;99.90;;;;;;4986229;28;20444;-87
2022/06/18 02:04:05;;;;;;;4.73;4.33;;;17.20;99.90;;;;;;5006189;27;20436;-86
2022/06/18 02:06:34;;;;;;;7.50;4.30;;;17.10;99.90;;;;;;4985279;28;20457;-86
2022/06/18 02:09:11;;;;;;;4.67;4.27;;;17.10;99.90;;;;;;4972847;28;21045;-86
2022/06/18 02:11:37;;;;;;;6.73;4.40;;;17.00;99.90;;;;;;4986704;28;20484;-87
2022/06/18 02:14:06;;;;;;;4.83;3.90;;;17.00;99.90;;;;;;4972365;28;20436;-86
2022/06/18 02:16:39;;;;;;;5.00;3.97;;;16.90;99.90;;;;;;4967531;28;20177;-87
2022/06/18 02:19:05;;;;;;;5.03;4.57;;;16.90;99.90;;;;;;4979057;28;20503;-87
2022/06/18 02:21:38;;;;;;;4.50;3.83;;;16.90;99.90;;;;;;4971376;28;20459;-86
2022/06/18 02:24:05;;;;;;;4.03;3.73;;;16.80;99.90;;;;;;4995445;28;20857;-86
2022/06/18 02:26:31;;;;;;;4.53;4.23;;;16.80;99.90;;;;;;4970668;28;20513;-86
2022/06/18 02:29:00;;;;;;;4.37;4.00;;;16.80;99.90;;;;;;4989768;28;20857;-86
2022/06/18 02:31:33;;;;;;;5.30;4.77;;;16.80;99.90;;;;;;4982595;28;20476;-86
2022/06/18 02:34:03;;;;;;;4.43;4.00;;;16.80;99.90;;;;;;4977914;28;20463;-85
2022/06/18 02:36:31;;;;;;;4.80;4.40;;;16.70;99.90;;;;;;4986961;28;21104;-86
2022/06/18 02:39:09;;;;;;;4.93;4.47;;;16.70;99.90;;;;;;4992180;28;20527;-85
2022/06/18 02:41:37;;;;;;;5.63;5.23;;;16.70;99.90;;;;;;5005759;27;20443;-86
2022/06/18 02:44:03;;;;;;;4.70;4.30;;;16.70;99.90;;;;;;4993161;28;20841;-85
2022/06/18 02:46:28;;;;;;;4.57;4.27;;;16.70;99.90;;;;;;4982834;28;20514;-86
2022/06/18 02:48:54;;;;;;;4.97;4.57;;;16.70;99.90;;;;;;4993740;28;20217;-86
2022/06/18 02:51:21;;;;;;;4.60;4.30;;;16.70;99.90;;;;;;4978312;28;20713;-86
2022/06/18 02:53:46;;;;;;;4.73;4.43;;;16.60;99.90;;;;;;4997636;28;20436;-86
2022/06/18 02:56:15;;;;;;;5.50;4.30;;;16.70;99.90;;;;;;4973277;28;20197;-86
2022/06/18 02:58:44;;;;;;;4.30;4.00;;;16.70;99.90;;;;;;4987681;28;20177;-86
2022/06/18 03:01:17;;;;;;;4.40;4.00;;;16.70;99.90;;;;;;4982365;28;20451;-87
2022/06/18 03:03:47;;;;;;;4.53;4.20;;;16.60;99.90;;;;;;4975814;28;20440;-86
2022/06/18 03:06:15;;;;;;;4.90;4.50;;;16.60;99.90;;;;;;4991675;28;21233;-86
2022/06/18 03:08:41;;;;;;;5.30;4.80;;;16.70;99.90;;;;;;4986774;28;20493;-87
2022/06/18 03:13:54;;;;;;;4.30;3.90;;;16.70;99.90;;;;;;4989880;28;20443;-86
2022/06/18 03:16:22;;;;;;;4.23;3.93;;;16.80;99.90;;;;;;4983215;28;20436;-86
2022/06/18 03:18:50;;;;;;;4.00;3.70;;;16.80;99.90;;;;;;4989804;28;20969;-86
2022/06/18 03:21:35;;;;;;;3.77;3.43;;;16.80;99.90;;;;;;4980859;28;20489;-86
2022/06/18 03:24:01;;;;;;;3.90;3.63;;;16.80;99.90;;;;;;4987487;28;20848;-86
2022/06/18 03:26:27;;;;;;;4.30;3.90;;;16.80;99.90;;;;;;4970518;28;20451;-86
2022/06/18 03:28:52;;;;;;;4.07;3.73;;;16.90;99.90;;;;;;4981204;28;20478;-86
2022/06/18 03:31:18;;;;;;;5.67;4.17;;;16.70;99.90;;;;;;4998077;28;21052;-86
2022/06/18 03:33:46;;;;;;;5.00;4.60;;;16.80;99.90;;;;;;4996381;28;20188;-87
2022/06/18 03:36:12;;;;;;;5.00;4.70;;;16.80;99.90;;;;;;5014019;28;20176;-86
2022/06/18 03:38:38;;;;;;;4.90;4.50;;;16.90;99.90;;;;;;4991696;28;20436;-87
2022/06/18 03:41:05;;;;;;;4.57;4.17;;;16.80;99.90;;;;;;4966354;28;20481;-86
2022/06/18 03:43:31;;;;;;;4.33;3.93;;;16.80;99.90;;;;;;4983437;28;20436;-86
2022/06/18 03:46:05;;;;;;;5.27;4.77;;;16.80;99.90;;;;;;4986287;28;20444;-87
2022/06/18 03:48:54;;;;;;;4.70;4.40;;;16.70;99.90;;;;;;5007343;28;20837;-86
2022/06/18 03:51:22;;;;;;;6.10;4.90;;;16.70;99.90;;;;;;4994871;28;20622;-86
2022/06/18 03:53:48;;;;;;;4.40;4.00;;;16.70;99.90;;;;;;4995481;28;20432;-86
2022/06/18 03:56:20;;;;;;;5.80;4.50;;;16.60;99.90;;;;;;5003592;28;20447;-86
2022/06/18 03:58:48;;;;;;;4.60;4.30;;;16.60;99.90;;;;;;4988314;28;20492;-86
2022/06/18 04:01:22;;;;;;;4.40;4.00;;;16.60;99.90;;;;;;5008076;27;20805;-86
2022/06/18 04:03:47;;;;;;;4.50;4.10;;;16.50;99.90;;;;;;4998897;28;20436;-86
2022/06/18 04:06:16;;;;;;;4.60;4.20;;;16.50;99.90;;;;;;4997294;28;20976;-87
2022/06/18 04:08:43;;;;;;;4.83;4.43;;;16.50;99.90;;;;;;4998523;28;20200;-86
2022/06/18 04:11:10;;;;;;;6.80;4.70;;;16.40;99.90;;;;;;4989177;28;20596;-86
2022/06/18 04:13:36;;;;;;;6.00;4.77;;;16.40;99.90;;;;;;4984707;28;20461;-86
2022/06/18 04:16:02;;;;;;;5.07;4.70;;;16.30;99.90;;;;;;4989820;28;20435;-87
2022/06/18 04:18:28;;;;;;;4.50;4.10;;;16.30;99.90;;;;;;4964654;28;20174;-86
2022/06/18 04:20:56;;;;;;;4.77;4.43;;;16.30;99.90;;;;;;4978434;28;20486;-86
2022/06/18 04:23:22;;;;;;;4.90;4.50;;;16.30;99.90;;;;;;4977557;28;20532;-86
2022/06/18 04:25:52;;;;;;;4.23;3.93;;;16.30;99.90;;;;;;4980064;28;20448;-86
2022/06/18 04:28:18;;;;;;;4.60;4.30;;;16.30;99.90;;;;;;4980786;28;20794;-87
2022/06/18 04:30:44;;;;;;;5.10;4.70;;;16.30;99.90;;;;;;4984887;28;20606;-86
2022/06/18 04:33:11;;;;;;;5.40;4.43;;;16.30;99.90;;;;;;4985176;28;20432;-87
2022/06/18 04:35:42;;;;;;;4.73;4.33;;;16.40;99.90;;;;;;4985417;28;20988;-86
2022/06/18 04:38:11;;;;;;;4.70;4.27;;;16.50;99.90;;;;;;4972999;28;21976;-87
2022/06/18 04:40:36;;;;;;;4.40;4.00;;;16.60;99.90;;;;;;4987003;28;21441;-86
2022/06/18 04:43:08;;;;;;;4.07;3.77;;;16.60;99.90;;;;;;5000202;28;20454;-86
2022/06/18 04:45:37;;;;;;;4.60;4.20;;;16.70;99.90;;;;;;4980419;28;20406;-86
2022/06/18 04:48:04;;;;;;;4.70;4.20;;;16.70;99.90;;;;;;4989056;28;20447;-86
2022/06/18 04:50:36;;;;;;;4.60;4.30;;;16.70;99.90;;;;;;5006778;28;20483;-86
2022/06/18 04:53:02;;;;;;;4.57;4.27;;;16.80;99.90;;;;;;4991894;28;20499;-86
2022/06/18 04:55:28;;;;;;;5.03;4.73;;;16.80;99.90;;;;;;4970133;28;20547;-86
2022/06/18 04:57:54;;;;;;;5.23;4.10;;;16.80;99.90;;;;;;5041239;28;20692;-86
2022/06/18 05:00:20;;;;;;;4.97;4.30;;;16.90;99.90;;;;;;4980959;28;20193;-86
2022/06/18 05:02:46;;;;;;;4.70;4.30;;;17.00;99.90;;;;;;4984097;28;20181;-86
2022/06/18 05:05:22;;;;;;;4.90;4.50;;;17.00;99.90;;;;;;4981044;28;20440;-86
2022/06/18 05:07:47;;;;;;;4.40;4.10;;;17.00;99.90;;;;;;4966987;28;20453;-87
2022/06/18 05:10:14;;;;;;;4.40;4.00;;;17.10;99.90;;;;;;4967115;28;20475;-86
2022/06/18 05:12:40;;;;;;;5.30;4.80;;;17.20;99.90;;;;;;4978034;28;20193;-86
2022/06/18 05:15:08;;;;;;;4.50;4.20;;;17.20;99.90;;;;;;4977825;28;21060;-86
2022/06/18 05:17:36;;;;;;;4.70;4.40;;;17.20;99.90;;;;;;4965296;28;20658;-87
2022/06/18 05:20:03;;;;;;;4.83;4.53;;;17.30;99.90;;;;;;4987643;28;20509;-87
2022/06/18 05:22:29;;;;;;;4.70;4.30;;;17.40;99.90;;;;;;4999375;28;20449;-86
2022/06/18 05:24:55;;;;;;;5.00;4.50;;;17.40;99.90;;;;;;4984415;28;20501;-86
2022/06/18 05:27:34;;;;;;;5.00;4.63;;;17.40;99.90;;;;;;4972763;28;20200;-87
2022/06/18 05:30:00;;;;;;;5.33;4.83;;;17.50;99.90;;;;;;4983449;28;20213;-87
2022/06/18 05:32:26;;;;;;;5.40;5.00;;;17.70;99.90;;;;;;4979108;28;20814;-86
2022/06/18 05:34:52;;;;;;;5.03;4.63;;;17.70;99.90;;;;;;4962789;28;20196;-87
2022/06/18 05:37:23;;;;;;;5.90;5.40;;;17.70;99.90;;;;;;4982707;28;20193;-87
2022/06/18 05:39:49;;;;;;;4.70;4.40;;;17.70;99.90;;;;;;4978147;28;20446;-85
2022/06/18 05:42:14;;;;;;;4.70;4.40;;;17.90;99.90;;;;;;5004545;28;23889;-86
2022/06/18 05:44:46;;;;;;;4.90;4.60;;;18.00;99.90;;;;;;4979373;28;22345;-86
2022/06/18 05:47:20;;;;;;;5.40;5.00;;;18.10;99.90;;;;;;4967817;28;20204;-85
2022/06/18 05:49:46;;;;;;;5.33;4.67;;;18.10;99.90;;;;;;4972075;28;20469;-86
2022/06/18 05:52:12;;;;;;;5.10;4.47;;;18.10;99.90;;;;;;4982255;28;20855;-85
2022/06/18 05:54:38;;;;;;;5.47;5.07;;;18.20;99.90;;;;;;4987115;28;20181;-86
2022/06/18 05:57:04;;;;;;;4.40;4.00;;;18.30;99.90;;;;;;4987892;28;20454;-86
2022/06/18 05:59:30;;;;;;;4.97;4.50;;;18.40;99.90;;;;;;4981976;28;20204;-86
2022/06/18 06:01:56;;;;;;;5.07;4.60;;;18.50;99.90;;;;;;4977146;28;20460;-86
2022/06/18 06:04:24;;;;;;;5.10;4.80;;;18.60;99.90;;;;;;4989193;28;20486;-86
2022/06/18 06:06:51;;;;;;;5.00;4.70;;;18.60;99.90;;;;;;4982208;28;21083;-87
2022/06/18 06:11:28;;;;;;;5.57;5.17;;;18.70;99.90;;;;;;4983980;28;20440;-88
2022/06/18 06:12:13;;;;;;;5.93;4.87;;;18.70;99.90;;;;;;4983523;28;20466;-87
2022/06/18 06:14:40;;;;;;;5.40;5.00;;;18.90;99.90;;;;;;4994621;28;20443;-88
2022/06/18 06:17:15;;;;;;;4.93;4.53;;;19.00;99.90;;;;;;4979436;28;21005;-88
2022/06/18 06:19:41;;;;;;;6.07;5.57;;;19.10;99.90;;;;;;4985033;28;20482;-88
2022/06/18 06:22:10;;;;;;;4.70;4.40;;;19.30;99.90;;;;;;4981823;28;20590;-88
2022/06/18 06:24:38;;;;;;;4.47;4.07;;;19.30;99.90;;;;;;4992481;28;20185;-88
2022/06/18 06:27:14;;;;;;;4.70;4.40;;;19.40;99.90;;;;;;4971100;28;21114;-87
2022/06/18 06:29:39;;;;;;;5.10;4.70;;;19.60;99.90;;;;;;4966773;28;20584;-87
2022/06/18 06:32:05;;;;;;;4.70;4.40;;;19.70;99.90;;;;;;4966880;28;20862;-87
2022/06/18 06:34:31;;;;;;;5.30;4.80;;;19.80;99.90;;;;;;4968934;28;21141;-87
2022/06/18 06:36:56;;;;;;;5.03;4.73;;;19.90;99.90;;;;;;4992747;28;20451;-87
2022/06/18 06:39:22;;;;;;;5.00;4.70;;;20.00;99.90;;;;;;4978522;28;20489;-87
2022/06/18 06:41:51;;;;;;;4.77;4.47;;;20.10;99.90;;;;;;4975978;28;20703;-88
2022/06/18 06:44:16;;;;;;;5.40;5.00;;;20.40;99.90;;;;;;4966910;28;20197;-87
2022/06/18 06:46:49;;;;;;;4.40;4.10;;;20.50;99.90;;;;;;4974084;28;20467;-87
2022/06/18 06:49:15;;;;;;;4.80;4.50;;;20.60;99.70;;;;;;5007430;28;20207;-87
2022/06/18 06:51:42;;;;;;;4.70;4.40;;;20.60;99.90;;;;;;5003255;28;20757;-87
2022/06/18 06:54:08;;;;;;;5.00;4.60;;;20.80;99.90;;;;;;4996706;28;20181;-87
2022/06/18 06:59:21;;;;;;;4.90;4.50;;;21.10;99.90;;;;;;4999353;28;20955;-88
2022/06/18 07:01:46;;;;;;;5.77;5.37;;;21.30;99.80;;;;;;4983727;28;20523;-88
2022/06/18 07:04:13;;;;;;;4.90;4.50;;;21.50;99.50;;;;;;4978661;28;20444;-88
2022/06/18 07:06:39;;;;;;;5.20;4.80;;;21.70;98.50;;;;;;4984565;28;20192;-87
2022/06/18 07:09:06;;;;;;;5.33;4.93;;;21.90;98.90;;;;;;4985170;28;20455;-88
2022/06/18 07:11:33;;;;;;;5.17;4.67;;;22.10;98.60;;;;;;4988828;28;20536;-87
2022/06/18 07:13:59;;;;;;;5.33;4.40;;;22.20;98.10;;;;;;4978094;28;20436;-88
2022/06/18 07:16:25;;;;;;;5.00;4.60;;;22.30;97.10;;;;;;4980637;28;20444;-88
2022/06/18 07:18:52;;;;;;;4.60;4.30;;;22.40;96.90;;;;;;4986110;28;20446;-88
2022/06/18 07:21:19;;;;;;;4.90;4.50;;;22.40;96.60;;;;;;4966434;28;20188;-89
2022/06/18 07:23:44;;;;;;;4.73;4.37;;;22.50;96.50;;;;;;4998935;28;20440;-89
2022/06/18 07:26:15;;;;;;;4.73;4.37;;;22.50;96.40;;;;;;4980448;28;20466;-87
2022/06/18 07:28:42;;;;;;;4.53;4.13;;;22.60;96.50;;;;;;4992613;28;20546;-89
2022/06/18 07:31:14;;;;;;;4.37;4.07;;;22.70;96.70;;;;;;5009731;28;20535;-88
2022/06/18 07:33:43;;;;;;;5.00;4.50;;;22.90;96.30;;;;;;5005021;28;20435;-88
2022/06/18 07:36:09;;;;;;;5.13;4.73;;;23.00;96.60;;;;;;4999478;28;20448;-88
2022/06/18 07:39:17;;;;;;;4.93;4.50;;;23.10;94.90;;;;;;4990162;28;24758;-87
2022/06/18 07:41:56;;;;;;;4.93;4.43;;;23.30;94.40;;;;;;4988349;28;20185;-88
2022/06/18 07:44:45;;;;;;;5.00;4.60;;;23.30;94.10;;;;;;4975342;28;20448;-91
2022/06/18 07:47:20;;;;;;;4.67;4.33;;;23.50;94.10;;;;;;4968447;28;21130;-90
2022/06/18 07:49:46;;;;;;;4.07;3.77;;;23.70;92.30;;;;;;4983488;28;20439;-89
2022/06/18 07:52:13;;;;;;;4.93;4.37;;;23.70;90.80;;;;;;4983421;28;20456;-89
2022/06/18 07:54:40;;;;;;;4.60;4.30;;;23.60;91.70;;;;;;4992596;28;20462;-89
2022/06/18 07:57:05;;;;;;;4.23;3.93;;;23.70;90.80;;;;;;4989264;28;20448;-90
2022/06/18 07:59:32;;;;;;;3.80;3.60;;;23.70;90.50;;;;;;4988735;28;20794;-89
2022/06/18 08:01:58;;;;;;;4.27;4.07;;;23.90;91.30;;;;;;4975628;28;20189;-88
2022/06/18 08:04:26;;;;;;;4.37;4.07;;;24.00;91.60;;;;;;4986013;28;21145;-89
2022/06/18 08:07:03;;;;;;;4.57;4.27;;;24.20;90.80;;;;;;4967308;28;20440;-89
2022/06/18 08:09:38;;;;;;;4.67;4.27;;;24.50;91.50;;;;;;4986408;28;20443;-89
2022/06/18 08:12:07;;;;;;;4.33;3.97;;;24.70;90.70;;;;;;5003374;28;20988;-89
2022/06/18 08:14:33;;;;;;;4.13;3.93;;;24.80;89.70;;;;;;4990824;28;20465;-89
2022/06/18 08:16:58;;;;;;;5.00;3.97;;;25.00;88.80;;;;;;4990700;28;20769;-88
2022/06/18 08:19:27;;;;;;;4.87;4.57;;;25.10;88.50;;;;;;4990754;28;20790;-88
2022/06/18 08:21:52;;;;;;;4.00;3.70;;;25.10;89.70;;;;;;4986050;28;20611;-88
2022/06/18 08:24:20;;;;;;;4.70;4.30;;;25.20;88.60;;;;;;4989970;28;20443;-89
2022/06/18 08:26:48;;;;;;;4.60;4.30;;;25.30;90.10;;;;;;4988695;28;20971;-89
2022/06/18 08:29:19;;;;;;;4.63;3.90;;;25.50;88.40;;;;;;4995198;28;20860;-88
2022/06/18 08:31:45;;;;;;;4.60;4.30;;;25.50;87.50;;;;;;5061726;28;20467;-89
2022/06/18 08:34:11;;;;;;;4.80;4.50;;;25.50;86.90;;;;;;4981910;28;20467;-88
2022/06/18 08:36:39;;;;;;;6.00;4.47;;;25.70;88.50;;;;;;4994175;28;21025;-89
2022/06/18 08:39:12;;;;;;;4.10;3.80;;;25.80;87.10;;;;;;4984248;28;20459;-90
2022/06/18 08:41:48;;;;;;;4.70;4.40;;;26.00;86.40;;;;;;4988882;28;20455;-90
2022/06/18 08:44:38;;;;;;;4.10;3.80;;;26.10;84.30;;;;;;4987182;28;20492;-89
2022/06/18 08:47:22;;;;;;;3.93;3.70;;;26.20;83.30;;;;;;4964982;28;20450;-89
2022/06/18 08:49:47;;;;;;;4.33;4.03;;;26.30;85.90;;;;;;4984121;28;20462;-90
2022/06/18 08:52:51;;;;;;;4.60;4.30;;;26.50;86.20;;;;;;4977249;28;20452;-89
2022/06/18 08:56:00;;;;;;;5.90;5.50;;;26.50;85.20;;;;;;4971340;28;20280;-93
2022/06/18 08:59:06;;;;;;;4.20;3.93;;;26.50;83.70;;;;;;4981428;28;20444;-89
2022/06/18 09:01:40;;;;;;;4.50;4.10;;;26.50;82.60;;;;;;4992441;28;20444;-89
2022/06/18 09:04:06;;;;;;;4.70;4.40;;;26.50;81.80;;;;;;4990817;28;20444;-87
2022/06/18 09:07:03;;;;;;;4.27;4.00;;;26.70;81.80;;;;;;4970142;28;20439;-87
2022/06/18 09:09:54;;;;;;;4.30;3.90;;;26.90;81.50;;;;;;5007429;27;20181;-87
2022/06/18 09:12:46;;;;;;;4.53;4.00;;;26.90;76.10;;;;;;4990556;28;20487;-87
2022/06/18 09:15:36;;;;;;;4.33;4.00;;;26.90;77.80;;;;;;4982281;28;20428;-87
2022/06/18 09:18:22;;;;;;;3.80;3.50;;;27.10;76.50;;;;;;5051755;28;20454;-90
2022/06/18 09:20:56;;;;;;;4.30;3.60;;;27.30;72.70;;;;;;4990323;28;20454;-90
2022/06/18 09:23:29;;;;;;;7.13;3.77;;;27.30;76.90;;;;;;4983913;28;20427;-89
2022/06/18 09:25:58;;;;;;;3.50;3.20;;;27.50;72.60;;;;;;5000530;28;21027;-90
2022/06/18 09:28:35;;;;;;;3.60;3.40;;;27.70;73.30;;;;;;4975367;28;20451;-89
2022/06/18 09:31:12;;;;;;;3.30;3.10;;;27.60;65.80;;;;;;5005045;28;20471;-89
2022/06/18 09:33:44;;;;;;;4.30;3.50;;;27.70;67.70;;;;;;5001423;28;20981;-89
2022/06/18 09:36:28;;;;;;;3.40;3.10;;;28.00;78.20;;;;;;4993197;28;20466;-89
2022/06/18 09:39:12;;;;;;;3.93;3.63;;;28.20;73.80;;;;;;4992215;28;20924;-89
2022/06/18 09:42:01;;;;;;;2.80;2.60;;;28.30;71.70;;;;;;4995768;28;20444;-88
2022/06/18 09:44:55;;;;;;;2.90;2.70;;;28.50;61.10;;;;;;4964935;28;20443;-91
2022/06/18 09:47:36;;;;;;;3.90;3.50;;;28.80;61.80;;;;;;4985935;28;20444;-89
2022/06/18 09:50:03;;;;;;;2.87;2.67;;;29.00;63.70;;;;;;4981599;28;20518;-90
2022/06/18 09:52:48;;;;;;;3.30;3.00;;;29.20;57.30;;;;;;4982356;28;20436;-90
2022/06/18 09:55:38;;;;;;;3.10;2.33;;;29.30;58.10;;;;;;4991109;28;20979;-90
2022/06/18 09:58:08;;;;;;;3.10;2.90;;;29.30;54.80;;;;;;4982585;28;20436;-89
2022/06/18 10:00:35;;;;;;;3.30;3.00;;;29.30;56.20;;;;;;4983578;28;20483;-89
2022/06/18 10:09:16;;;;;;;3.37;3.07;;;29.50;50.50;;;;;;4983421;28;20516;-89
2022/06/18 10:11:43;;;;;;;3.70;3.50;;;29.60;51.90;;;;;;4979846;28;20471;-91
2022/06/18 10:14:19;;;;;;;3.80;3.30;;;29.60;53.30;;;;;;4975891;28;20440;-86
2022/06/18 10:17:11;;;;;;;3.30;2.97;;;29.70;53.60;;;;;;4987498;28;21649;-87
2022/06/18 10:20:02;;;;;;;3.17;2.97;;;29.90;53.60;;;;;;4986964;28;20505;-88
2022/06/18 10:22:56;;;;;;;3.13;2.93;;;30.20;54.70;;;;;;4999811;28;20474;-85
2022/06/18 10:25:29;;;;;;;3.57;3.27;;;30.40;54.60;;;;;;4974645;28;20914;-87
2022/06/18 10:28:22;;;;;;;3.33;3.03;;;30.60;52.20;;;;;;5003042;27;20774;-89
2022/06/18 10:31:00;;;;;;;3.10;2.90;;;30.50;51.50;;;;;;4994229;28;20967;-87
2022/06/18 10:33:48;;;;;;;3.27;2.80;;;30.10;53.60;;;;;;4983339;28;20432;-87
2022/06/18 10:36:32;;;;;;;3.20;2.90;;;30.50;55.50;;;;;;4986717;28;21287;-87
2022/06/18 10:39:24;;;;;;;3.93;3.63;;;30.70;52.80;;;;;;4990851;28;20845;-88
2022/06/18 10:42:11;;;;;;;4.00;3.60;;;30.90;56.00;;;;;;4988075;28;20602;-88
2022/06/18 10:44:54;;;;;;;3.23;3.03;;;31.00;52.00;;;;;;4986174;28;20474;-87
2022/06/18 10:47:29;;;;;;;3.13;2.83;;;30.80;51.90;;;;;;4979951;28;20504;-87
2022/06/18 10:50:08;;;;;;;3.53;3.23;;;30.80;51.00;;;;;;4983180;28;20680;-87
2022/06/18 10:52:36;;;;;;;4.07;3.60;;;31.00;51.00;;;;;;4986009;28;20910;-87
2022/06/18 10:55:20;;;;;;;4.93;3.57;;;31.10;52.00;;;;;;4991246;28;20428;-87
2022/06/18 10:57:48;;;;;;;3.30;3.10;;;31.00;52.20;;;;;;4969012;28;20436;-91
2022/06/18 11:00:24;;;;;;;3.30;3.10;;;30.80;53.60;;;;;;4987850;28;20468;-88
2022/06/18 11:02:55;;;;;;;3.20;3.00;;;31.00;53.70;;;;;;5000932;28;20436;-87
2022/06/18 11:05:33;;;;;;;3.83;3.50;;;31.00;52.40;;;;;;4970840;28;20443;-87
2022/06/18 11:08:04;;;;;;;3.80;3.50;;;31.20;57.20;;;;;;4982385;28;20447;-88
2022/06/18 11:10:35;;;;;;;3.33;3.10;;;31.10;54.50;;;;;;4989208;28;20467;-88
2022/06/18 11:13:03;;;;;;;5.80;3.13;;;31.40;54.40;;;;;;5002422;28;20440;-88
2022/06/18 11:15:35;;;;;;;3.53;3.30;;;31.80;57.80;;;;;;4994859;28;20443;-88
2022/06/18 11:18:22;;;;;;;3.70;3.40;;;32.10;57.10;;;;;;4971333;28;20546;-88
2022/06/18 11:21:01;;;;;;;4.03;3.73;;;32.40;52.60;;;;;;5005739;28;20468;-88
2022/06/18 11:23:27;;;;;;;4.20;3.90;;;32.50;52.00;;;;;;4977475;28;21997;-87
2022/06/18 11:25:56;;;;;;;3.73;3.40;;;32.40;52.00;;;;;;4989809;28;20467;-87
2022/06/18 11:28:39;;;;;;;3.87;3.67;;;32.30;52.60;;;;;;4998526;28;20439;-85
2022/06/18 11:31:06;;;;;;;4.30;4.00;;;31.90;56.10;;;;;;4997991;28;20528;-85
2022/06/18 11:33:39;;;;;;;3.87;3.63;;;31.90;54.60;;;;;;4989508;28;20428;-85
2022/06/18 11:36:17;;;;;;;4.20;3.90;;;32.40;53.00;;;;;;4998785;28;20455;-85
2022/06/18 11:38:53;;;;;;;3.90;3.70;;;32.80;52.50;;;;;;4988279;28;20431;-85
2022/06/18 11:41:38;;;;;;;3.70;3.40;;;32.60;51.90;;;;;;4989164;28;20529;-85
2022/06/18 11:44:17;;;;;;;3.87;3.57;;;32.50;51.90;;;;;;4980684;28;20445;-85
2022/06/18 11:46:49;;;;;;;6.20;4.10;;;32.10;53.10;;;;;;4988892;28;20462;-87
2022/06/18 11:49:33;;;;;;;3.90;3.60;;;32.00;53.50;;;;;;4986848;28;20456;-88
2022/06/18 11:51:59;;;;;;;4.20;4.00;;;32.50;52.60;;;;;;4987404;28;20482;-88
2022/06/18 11:54:41;;;;;;;4.07;3.87;;;33.00;52.30;;;;;;4993806;28;20846;-88
2022/06/18 11:57:24;;;;;;;4.13;3.83;;;33.40;51.50;;;;;;4985122;28;20451;-88
2022/06/18 11:59:57;;;;;;;4.37;4.00;;;33.10;52.20;;;;;;4985735;28;20434;-89
2022/06/18 12:02:56;;;;;;;4.97;3.73;;;33.50;52.00;;;;;;4990751;28;20465;-88
2022/06/18 12:05:29;;;;;;;4.30;3.53;;;33.60;50.80;;;;;;4995382;28;20442;-88
2022/06/18 12:07:58;;;;;;;4.73;4.10;;;33.90;49.50;;;;;;4974204;28;21056;-88
2022/06/18 12:10:44;;;;;;;4.17;3.70;;;33.90;51.90;;;;;;4986627;28;21011;-89
2022/06/18 12:13:43;;;;;;;5.60;4.27;;;34.20;51.90;;;;;;4977989;28;20443;-85
2022/06/18 12:16:24;;;;;;;4.63;4.23;;;33.50;49.80;;;;;;4983269;28;20443;-86
2022/06/18 12:19:28;;;;;;;4.93;3.90;;;32.90;51.80;;;;;;5059466;28;20495;-85
2022/06/18 12:22:15;;;;;;;5.00;3.60;;;33.00;52.30;;;;;;4986786;28;20463;-86
2022/06/18 12:24:46;;;;;;;4.17;3.87;;;32.90;52.60;;;;;;4994600;28;20443;-85
2022/06/18 12:27:18;;;;;;;4.77;4.10;;;33.50;54.20;;;;;;4978919;28;20451;-85
2022/06/18 12:30:01;;;;;;;5.17;4.03;;;33.80;56.80;;;;;;4988073;28;20451;-86
2022/06/18 12:32:42;;;;;;;4.33;3.43;;;34.30;50.30;;;;;;5007411;28;20481;-88
2022/06/18 12:35:29;;;;;;;5.13;3.93;;;34.30;52.80;;;;;;5000300;28;22002;-86
2022/06/18 12:38:17;;;;;;;3.93;3.63;;;34.20;52.90;;;;;;4992484;28;20445;-88
2022/06/18 12:40:56;;;;;;;5.40;3.60;;;34.30;51.10;;;;;;4982649;28;21051;-88
2022/06/18 12:44:02;;;;;;;4.37;4.07;;;34.80;51.10;;;;;;5060642;28;20451;-87
2022/06/18 12:46:41;;;;;;;4.10;3.70;;;35.00;47.30;;;;;;5022293;27;21061;-88
2022/06/18 12:49:23;;;;;;;5.23;3.47;;;35.40;51.60;;;;;;5021145;28;20525;-88
2022/06/18 12:52:06;;;;;;;4.30;4.00;;;35.40;55.50;;;;;;5009095;28;20478;-89
2022/06/18 12:54:58;;;;;;;4.47;3.93;;;35.40;51.70;;;;;;5016653;28;20800;-87
2022/06/18 12:57:33;;;;;;;4.50;4.10;;;35.30;51.90;;;;;;4998673;28;20450;-87
2022/06/18 13:00:04;;;;;;;5.90;3.80;;;35.30;53.90;;;;;;4998577;28;20439;-87
2022/06/18 13:02:57;;;;;;;6.93;3.77;;;34.60;51.00;;;;;;5066437;28;20481;-86
2022/06/18 13:05:37;;;;;;;7.43;4.40;;;34.80;51.50;;;;;;5005544;28;20801;-86
2022/06/18 13:08:40;;;;;;;5.03;4.40;;;35.30;52.80;;;;;;5002171;28;20526;-87
2022/06/18 13:11:21;;;;;;;4.33;3.93;;;35.20;55.90;;;;;;5027608;28;20447;-87
2022/06/18 13:14:08;;;;;;;4.20;3.80;;;35.20;55.50;;;;;;5000745;28;20438;-87
2022/06/18 13:16:42;;;;;;;4.60;4.07;;;35.40;57.60;;;;;;5006608;28;20588;-93
2022/06/18 13:19:16;;;;;;;6.30;4.13;;;36.10;56.10;;;;;;5002841;28;20596;-91
2022/06/18 13:21:41;;;;;;;4.63;4.30;;;36.10;53.40;;;;;;5010783;28;20626;-92
2022/06/18 13:30:57;;;;;;;7.70;4.80;;;36.20;52.40;;;;;;4999446;28;20232;-92
2022/06/18 13:33:46;;;;;;;6.53;4.77;;;36.70;48.60;;;;;;4988931;28;20192;-90
2022/06/18 13:36:14;;;;;;;5.70;4.20;;;37.40;47.30;;;;;;4992105;28;20277;-90
2022/06/18 13:38:57;;;;;;;4.40;4.00;;;37.10;50.80;;;;;;5004315;28;20189;-89
2022/06/18 13:41:35;;;;;;;4.40;4.00;;;36.90;51.60;;;;;;5017838;27;20224;-90